Pilot No. 4 — WDA5463 — position and weather

sailwx.info

Track history (hours):
 
Tides and Currents Weather Stations Pressure Air Temp Water Temp Dewpoint Dewpoint Depression Visibility Wind Speed Wind Dir Waves Ship Positions

Pilot No. 4

Owner: P E P Inc, FORT LAUDERDALE, FL. More information available from US FCC via Universal Licensing System and Coast Guard Vessel Documentation Center.

Last reported at 2015-Sep-02 10:33 UTC. Time now 2015-Sep-05 16:24 UTC.
Position N 26°06' W 080°07'.

MMSI: 495270931.

Date/timePositionNaut miles runAvg speedWind from/ knotsBaromVisibWave heightAir tempDewpointWater temp
2015-Sep-02 10:33N 26°06' W 080°07'3 1.1
2015-Sep-02 07:32N 26°07' W 080°03'3 0.2
2015-Sep-01 17:06N 26°06' W 080°07'1 0.5
2015-Sep-01 15:26N 26°06' W 080°07'0 0.0
2015-Sep-01 14:33N 26°06' W 080°07'0 0.0
2015-Sep-01 13:33N 26°06' W 080°07'1 0.9
2015-Sep-01 12:33N 26°05' W 080°07'1 0.7
2015-Sep-01 11:20N 26°06' W 080°07'0 0.5
2015-Sep-01 10:33N 26°06' W 080°07'3 2.5
2015-Sep-01 09:34N 26°05' W 080°04'1 1.0
2015-Sep-01 08:33N 26°06' W 080°03'2 2.5
2015-Sep-01 07:33N 26°06' W 080°06'2 1.8
2015-Sep-01 06:33N 26°06' W 080°04'3 0.7
2015-Sep-01 02:32N 26°06' W 080°07'0 0.0
2015-Aug-31 22:19N 26°06' W 080°07'0 0.0
2015-Aug-31 21:33N 26°06' W 080°07'1 0.7
2015-Aug-31 20:33N 26°06' W 080°07'1 0.2
2015-Aug-31 17:33N 26°06' W 080°07'1 1.4
2015-Aug-31 16:33N 26°05' W 080°07'1 0.4
2015-Aug-31 13:03N 26°06' W 080°07'4 8.8
2015-Aug-31 12:33N 26°04' W 080°03'4 4.3
2015-Aug-31 11:33N 26°06' W 080°07'1 1.0
2015-Aug-31 10:33N 26°05' W 080°07'2 1.7
2015-Aug-31 09:33N 26°06' W 080°05'2 1.5
2015-Aug-31 08:33N 26°05' W 080°07'3 2.6
2015-Aug-31 07:33N 26°05' W 080°04'3 3.1
2015-Aug-31 06:33N 26°06' W 080°07'0 0.0
2015-Aug-30 20:20N 26°06' W 080°07'1 0.8
2015-Aug-30 19:33N 26°06' W 080°07'1 0.1
2015-Aug-30 09:18N 26°06' W 080°07'4 5.5
2015-Aug-30 08:33N 26°05' W 080°03'4 1.8
2015-Aug-30 06:18N 26°06' W 080°07'1 1.0
2015-Aug-30 05:32N 26°06' W 080°07'0 0.3
2015-Aug-30 04:33N 26°05' W 080°07'0 0.2
2015-Aug-30 03:33N 26°05' W 080°07'1 0.2
2015-Aug-29 21:25N 26°06' W 080°07'0 0.1
2015-Aug-29 18:34N 26°06' W 080°07'0 0.4
2015-Aug-29 17:34N 26°06' W 080°07'0 0.4
2015-Aug-29 16:33N 26°05' W 080°07'1 0.9
2015-Aug-29 15:33N 26°06' W 080°07'0 0.2
2015-Aug-29 14:33N 26°06' W 080°07'1 1.0
2015-Aug-29 13:33N 26°05' W 080°07'1 0.5
2015-Aug-29 11:28N 26°06' W 080°07'1 1.1
2015-Aug-29 10:33N 26°05' W 080°07'0 0.5
2015-Aug-29 09:33N 26°06' W 080°07'0 0.3
2015-Aug-29 08:33N 26°05' W 080°07'1 0.6
2015-Aug-29 07:33N 26°06' W 080°06'1 0.1
2015-Aug-29 03:34N 26°06' W 080°07'1 0.6
2015-Aug-29 02:33N 26°06' W 080°07'2 1.9
2015-Aug-29 01:34N 26°06' W 080°05'2 1.4
2015-Aug-29 00:10N 26°06' W 080°07'0 0.0
2015-Aug-28 23:33N 26°06' W 080°07'0 0.0
2015-Aug-28 22:33N 26°06' W 080°07'1 0.2
2015-Aug-28 17:33N 26°06' W 080°06'1 0.8
2015-Aug-28 16:33N 26°05' W 080°07'1 0.2
2015-Aug-28 11:06N 26°06' W 080°07'2 3.9
2015-Aug-28 10:33N 26°05' W 080°05'1 0.8
2015-Aug-28 09:33N 26°06' W 080°06'0 0.2
2015-Aug-28 08:33N 26°06' W 080°06'2 0.4
2015-Aug-28 04:33N 26°06' W 080°07'2 1.6
2015-Aug-28 03:34N 26°06' W 080°06'2 0.7
2015-Aug-28 01:12N 26°06' W 080°07'0 0.0
2015-Aug-28 00:32N 26°06' W 080°07'0 0.0
2015-Aug-27 23:33N 26°06' W 080°07'0 0.4
2015-Aug-27 22:33N 26°06' W 080°07'0 0.3
2015-Aug-27 21:33N 26°06' W 080°07'1 0.6
2015-Aug-27 20:33N 26°06' W 080°07'0 0.0
2015-Aug-27 19:33N 26°06' W 080°07'1 0.2
2015-Aug-27 15:33N 26°06' W 080°07'4 3.8
2015-Aug-27 14:33N 26°07' W 080°03'4 4.3
2015-Aug-27 13:33N 26°06' W 080°07'1 0.7
2015-Aug-27 12:33N 26°06' W 080°07'2 2.1
2015-Aug-27 11:33N 26°05' W 080°05'3 1.3
2015-Aug-27 09:28N 26°06' W 080°07'1 1.1
2015-Aug-27 08:34N 26°05' W 080°07'1 1.2
2015-Aug-27 07:33N 26°06' W 080°06'0 0.2
2015-Aug-27 05:33N 26°06' W 080°06'1 0.7
2015-Aug-27 04:33N 26°05' W 080°07'0 0.1
2015-Aug-27 03:33N 26°05' W 080°07'0 0.0
2015-Aug-26 19:33N 26°06' W 080°07'0 0.1
2015-Aug-26 18:33N 26°06' W 080°07'2 0.1
2015-Aug-26 02:34N 26°06' W 080°05'2 1.6
2015-Aug-26 01:33N 26°06' W 080°07'0 0.1
2015-Aug-26 00:33N 26°06' W 080°07'1 0.3
2015-Aug-25 22:27N 26°06' W 080°07'1 0.7
2015-Aug-25 21:34N 26°06' W 080°07'0 0.0
2015-Aug-25 16:33N 26°06' W 080°07'0 0.1
2015-Aug-25 15:33N 26°06' W 080°07'1 0.1
2015-Aug-25 11:24N 26°06' W 080°07'1 0.8
2015-Aug-25 10:33N 26°06' W 080°07'1 0.3
2015-Aug-25 08:24N 26°06' W 080°07'1 0.7
2015-Aug-25 07:33N 26°06' W 080°07'0 0.2
2015-Aug-25 06:33N 26°05' W 080°07'0 0.4
2015-Aug-25 05:34N 26°06' W 080°07'0 0.1
2015-Aug-25 02:20N 26°06' W 080°07'1 0.8
2015-Aug-25 01:34N 26°06' W 080°07'0 0.1
2015-Aug-24 22:34N 26°05' W 080°07'0 0.3
2015-Aug-24 21:33N 26°06' W 080°07'1 1.3
2015-Aug-24 20:34N 26°06' W 080°05'2 1.5
2015-Aug-24 19:33N 26°05' W 080°07'1 0.5
2015-Aug-24 17:34N 26°06' W 080°07'2 1.6
2015-Aug-24 16:34N 26°04' W 080°07'1 0.3
2015-Aug-24 14:33N 26°05' W 080°07'1 0.9
2015-Aug-24 13:33N 26°06' W 080°06'1 0.8
2015-Aug-24 12:33N 26°05' W 080°07'1 0.4
2015-Aug-24 10:15N 26°06' W 080°07'1 1.5
2015-Aug-24 09:33N 26°05' W 080°07'0 0.0
2015-Aug-24 08:33N 26°05' W 080°07'1 0.2
2015-Aug-24 02:21N 26°06' W 080°07'0 0.6
2015-Aug-24 01:33N 26°06' W 080°07'0 0.2
2015-Aug-24 00:33N 26°06' W 080°07'0 0.4
2015-Aug-23 23:33N 26°06' W 080°07'1 0.8
2015-Aug-23 22:33N 26°06' W 080°07'0 0.1
2015-Aug-23 21:33N 26°06' W 080°07'2 1.6
2015-Aug-23 20:33N 26°06' W 080°06'2 0.2
2015-Aug-23 13:20N 26°06' W 080°07'0 0.5
2015-Aug-23 12:33N 26°06' W 080°07'0 0.4
2015-Aug-23 11:33N 26°05' W 080°07'  
Track history (hours):
 
Tides and Currents Weather Stations Pressure Air Temp Water Temp Dewpoint Dewpoint Depression Visibility Wind Speed Wind Dir Waves Ship Positions

Pilot No. 4

Owner: P E P Inc, FORT LAUDERDALE, FL. More information available from US FCC via Universal Licensing System and Coast Guard Vessel Documentation Center.

Last reported at 2015-Sep-02 10:33 UTC. Time now 2015-Sep-05 16:24 UTC.
Position N 26°06' W 080°07'.

MMSI: 495270931.

Date/timePositionNaut miles runAvg speedWind from/ knotsBaromVisibWave heightAir tempDewpointWater temp
2015-Sep-02 10:33N 26°06' W 080°07'3 1.1
2015-Sep-02 07:32N 26°07' W 080°03'3 0.2
2015-Sep-01 17:06N 26°06' W 080°07'1 0.5
2015-Sep-01 15:26N 26°06' W 080°07'0 0.0
2015-Sep-01 14:33N 26°06' W 080°07'0 0.0
2015-Sep-01 13:33N 26°06' W 080°07'1 0.9
2015-Sep-01 12:33N 26°05' W 080°07'1 0.7
2015-Sep-01 11:20N 26°06' W 080°07'0 0.5
2015-Sep-01 10:33N 26°06' W 080°07'3 2.5
2015-Sep-01 09:34N 26°05' W 080°04'1 1.0
2015-Sep-01 08:33N 26°06' W 080°03'2 2.5
2015-Sep-01 07:33N 26°06' W 080°06'2 1.8
2015-Sep-01 06:33N 26°06' W 080°04'3 0.7
2015-Sep-01 02:32N 26°06' W 080°07'0 0.0
2015-Aug-31 22:19N 26°06' W 080°07'0 0.0
2015-Aug-31 21:33N 26°06' W 080°07'1 0.7
2015-Aug-31 20:33N 26°06' W 080°07'1 0.2
2015-Aug-31 17:33N 26°06' W 080°07'1 1.4
2015-Aug-31 16:33N 26°05' W 080°07'1 0.4
2015-Aug-31 13:03N 26°06' W 080°07'4 8.8
2015-Aug-31 12:33N 26°04' W 080°03'4 4.3
2015-Aug-31 11:33N 26°06' W 080°07'1 1.0
2015-Aug-31 10:33N 26°05' W 080°07'2 1.7
2015-Aug-31 09:33N 26°06' W 080°05'2 1.5
2015-Aug-31 08:33N 26°05' W 080°07'3 2.6
2015-Aug-31 07:33N 26°05' W 080°04'3 3.1
2015-Aug-31 06:33N 26°06' W 080°07'0 0.0
2015-Aug-30 20:20N 26°06' W 080°07'1 0.8
2015-Aug-30 19:33N 26°06' W 080°07'1 0.1
2015-Aug-30 09:18N 26°06' W 080°07'4 5.5
2015-Aug-30 08:33N 26°05' W 080°03'4 1.8
2015-Aug-30 06:18N 26°06' W 080°07'1 1.0
2015-Aug-30 05:32N 26°06' W 080°07'0 0.3
2015-Aug-30 04:33N 26°05' W 080°07'0 0.2
2015-Aug-30 03:33N 26°05' W 080°07'1 0.2
2015-Aug-29 21:25N 26°06' W 080°07'0 0.1
2015-Aug-29 18:34N 26°06' W 080°07'0 0.4
2015-Aug-29 17:34N 26°06' W 080°07'0 0.4
2015-Aug-29 16:33N 26°05' W 080°07'1 0.9
2015-Aug-29 15:33N 26°06' W 080°07'0 0.2
2015-Aug-29 14:33N 26°06' W 080°07'1 1.0
2015-Aug-29 13:33N 26°05' W 080°07'1 0.5
2015-Aug-29 11:28N 26°06' W 080°07'1 1.1
2015-Aug-29 10:33N 26°05' W 080°07'0 0.5
2015-Aug-29 09:33N 26°06' W 080°07'0 0.3
2015-Aug-29 08:33N 26°05' W 080°07'1 0.6
2015-Aug-29 07:33N 26°06' W 080°06'1 0.1
2015-Aug-29 03:34N 26°06' W 080°07'1 0.6
2015-Aug-29 02:33N 26°06' W 080°07'2 1.9
2015-Aug-29 01:34N 26°06' W 080°05'2 1.4
2015-Aug-29 00:10N 26°06' W 080°07'0 0.0
2015-Aug-28 23:33N 26°06' W 080°07'0 0.0
2015-Aug-28 22:33N 26°06' W 080°07'1 0.2
2015-Aug-28 17:33N 26°06' W 080°06'1 0.8
2015-Aug-28 16:33N 26°05' W 080°07'1 0.2
2015-Aug-28 11:06N 26°06' W 080°07'2 3.9
2015-Aug-28 10:33N 26°05' W 080°05'1 0.8
2015-Aug-28 09:33N 26°06' W 080°06'0 0.2
2015-Aug-28 08:33N 26°06' W 080°06'2 0.4
2015-Aug-28 04:33N 26°06' W 080°07'2 1.6
2015-Aug-28 03:34N 26°06' W 080°06'2 0.7
2015-Aug-28 01:12N 26°06' W 080°07'0 0.0
2015-Aug-28 00:32N 26°06' W 080°07'0 0.0
2015-Aug-27 23:33N 26°06' W 080°07'0 0.4
2015-Aug-27 22:33N 26°06' W 080°07'0 0.3
2015-Aug-27 21:33N 26°06' W 080°07'1 0.6
2015-Aug-27 20:33N 26°06' W 080°07'0 0.0
2015-Aug-27 19:33N 26°06' W 080°07'1 0.2
2015-Aug-27 15:33N 26°06' W 080°07'4 3.8
2015-Aug-27 14:33N 26°07' W 080°03'4 4.3
2015-Aug-27 13:33N 26°06' W 080°07'1 0.7
2015-Aug-27 12:33N 26°06' W 080°07'2 2.1
2015-Aug-27 11:33N 26°05' W 080°05'3 1.3
2015-Aug-27 09:28N 26°06' W 080°07'1 1.1
2015-Aug-27 08:34N 26°05' W 080°07'1 1.2
2015-Aug-27 07:33N 26°06' W 080°06'0 0.2
2015-Aug-27 05:33N 26°06' W 080°06'1 0.7
2015-Aug-27 04:33N 26°05' W 080°07'0 0.1
2015-Aug-27 03:33N 26°05' W 080°07'0 0.0
2015-Aug-26 19:33N 26°06' W 080°07'0 0.1
2015-Aug-26 18:33N 26°06' W 080°07'2 0.1
2015-Aug-26 02:34N 26°06' W 080°05'2 1.6
2015-Aug-26 01:33N 26°06' W 080°07'0 0.1
2015-Aug-26 00:33N 26°06' W 080°07'1 0.3
2015-Aug-25 22:27N 26°06' W 080°07'1 0.7
2015-Aug-25 21:34N 26°06' W 080°07'0 0.0
2015-Aug-25 16:33N 26°06' W 080°07'0 0.1
2015-Aug-25 15:33N 26°06' W 080°07'1 0.1
2015-Aug-25 11:24N 26°06' W 080°07'1 0.8
2015-Aug-25 10:33N 26°06' W 080°07'1 0.3
2015-Aug-25 08:24N 26°06' W 080°07'1 0.7
2015-Aug-25 07:33N 26°06' W 080°07'0 0.2
2015-Aug-25 06:33N 26°05' W 080°07'0 0.4
2015-Aug-25 05:34N 26°06' W 080°07'0 0.1
2015-Aug-25 02:20N 26°06' W 080°07'1 0.8
2015-Aug-25 01:34N 26°06' W 080°07'0 0.1
2015-Aug-24 22:34N 26°05' W 080°07'0 0.3
2015-Aug-24 21:33N 26°06' W 080°07'1 1.3
2015-Aug-24 20:34N 26°06' W 080°05'2 1.5
2015-Aug-24 19:33N 26°05' W 080°07'1 0.5
2015-Aug-24 17:34N 26°06' W 080°07'2 1.6
2015-Aug-24 16:34N 26°04' W 080°07'1 0.3
2015-Aug-24 14:33N 26°05' W 080°07'1 0.9
2015-Aug-24 13:33N 26°06' W 080°06'1 0.8
2015-Aug-24 12:33N 26°05' W 080°07'1 0.4
2015-Aug-24 10:15N 26°06' W 080°07'1 1.5
2015-Aug-24 09:33N 26°05' W 080°07'0 0.0
2015-Aug-24 08:33N 26°05' W 080°07'1 0.2
2015-Aug-24 02:21N 26°06' W 080°07'0 0.6
2015-Aug-24 01:33N 26°06' W 080°07'0 0.2
2015-Aug-24 00:33N 26°06' W 080°07'0 0.4
2015-Aug-23 23:33N 26°06' W 080°07'1 0.8
2015-Aug-23 22:33N 26°06' W 080°07'0 0.1
2015-Aug-23 21:33N 26°06' W 080°07'2 1.6
2015-Aug-23 20:33N 26°06' W 080°06'2 0.2
2015-Aug-23 13:20N 26°06' W 080°07'0 0.5
2015-Aug-23 12:33N 26°06' W 080°07'0 0.4
2015-Aug-23 11:33N 26°05' W 080°07'  

Dump ship's entire track history